KIWD/IWD METAR and TAF weather

Enter ICAO airport designator
Station Type Date Time Source
KIWD METAR 2019/08/25 02:56 UTC NOAA

KIWD 250256Z AUTO 16005KT 10SM CLR 12/11 A3021 RMK AO2 SLP232 T01220106 58004


Station Type Date Time Source
KIWD Decoded METAR 2019/08/25 02:56 UTC NOAA

Station name not available
Aug 24, 2019 - 10:56 PM EDT / 2019.08.25 0256 UTC
Wind: from the SSE (160 degrees) at 6 MPH (5 KT):0
Visibility: 10 mile(s):0
Sky conditions: clear
Temperature: 54.0 F (12.2 C)
Dew Point: 51.1 F (10.6 C)
Relative Humidity: 89%
Pressure (altimeter): 30.21 in. Hg (1023 hPa)
Pressure tendency: 0.01 inches (0.4 hPa) lower than three hours ago
ob: KIWD 250256Z AUTO 16005KT 10SM CLR 12/11 A3021 RMK AO2 SLP232 T01220106 58004
cycle: 3

Station Type Date Time Source
KIWD TAF 2019/08/24 18:22 UTC NOAA

TAF KIWD 241720Z 2418/2518 18006KT P6SM SKC
FM242100 15006KT P6SM SKC
FM250100 17005KT P6SM SKC
FM251500 17010G19KT P6SM FEW250
FM251700 17010G20KT P6SM FEW120

Example: see airport list